Station Historical Data
Daily Summary for June 23, 2012 Units:  Both    English   Metric
« Previous Day
Next Day »
Daily Weekly Monthly Yearly Custom
  High: Low: Average:
Temperature: 94.5 °F /  34.7 °C 68.4 °F /  20.2 °C 80.6 °F /  27 °C
Dew Point: 67.3 °F /  19.6 °C 51.8 °F /  11 °C 61.2 °F /  16.2 °C
Humidity: 76% 25% 55%
Wind Speed: 10.0mph /  16.1km/h - 2.5mph /  4km/h
Wind Gust: 15.0mph /  24.1km/h - -
Wind- - East
Pressure: 29.91 in /  1012.8 hPa 29.84 in /  1010.4 hPa -
Precipitation: 0.00 in /  0 mm    
Historical Graphs
 
 
Tabular Data for June 23, 2012
Time Temperature Dew Point Pressure Wind Wind Speed Wind Gust Humidity Rainfall Rate (Hourly) Conditions
00:00 75.4 °F /  24.1 °C 67.3 °F /  19.6 °C 29.86in /  1011.1hPa NNE 2.0mph /  3.2km/h 2.0mph /  3.2km/h 76% 0.00in /  0mm
00:01 75.4 °F /  24.1 °C 67.3 °F /  19.6 °C 29.86in /  1011.1hPa North 2.0mph /  3.2km/h 2.0mph /  3.2km/h 76% 0.00in /  0mm
00:06 75.3 °F /  24.1 °C 67.2 °F /  19.6 °C 29.86in /  1011.1hPa NNE 3.0mph /  4.8km/h 3.0mph /  4.8km/h 76% 0.00in /  0mm
00:11 75.2 °F /  24 °C 67.1 °F /  19.5 °C 29.86in /  1011.1hPa North 2.0mph /  3.2km/h 3.0mph /  4.8km/h 76% 0.00in /  0mm
00:16 75.2 °F /  24 °C 66.7 °F /  19.3 °C 29.86in /  1011.1hPa NNE 1.0mph /  1.6km/h 2.0mph /  3.2km/h 75% 0.00in /  0mm
00:21 75.2 °F /  24 °C 66.7 °F /  19.3 °C 29.86in /  1011.1hPa NNW 2.0mph /  3.2km/h 2.0mph /  3.2km/h 75% 0.00in /  0mm
00:26 75.3 °F /  24.1 °C 66.4 °F /  19.1 °C 29.86in /  1011.1hPa North 2.0mph /  3.2km/h 3.0mph /  4.8km/h 74% 0.00in /  0mm
00:31 75.4 °F /  24.1 °C 66.5 °F /  19.2 °C 29.86in /  1011.1hPa NNW 1.0mph /  1.6km/h 2.0mph /  3.2km/h 74% 0.00in /  0mm
00:36 74.9 °F /  23.8 °C 66.4 °F /  19.1 °C 29.87in /  1011.4hPa NNW 1.0mph /  1.6km/h 1.0mph /  1.6km/h 75% 0.00in /  0mm
00:41 74.8 °F /  23.8 °C 66.3 °F /  19.1 °C 29.87in /  1011.4hPa North 1.0mph /  1.6km/h 2.0mph /  3.2km/h 75% 0.00in /  0mm
00:46 74.8 °F /  23.8 °C 66.3 °F /  19.1 °C 29.87in /  1011.4hPa North 1.0mph /  1.6km/h 1.0mph /  1.6km/h 75% 0.00in /  0mm
00:51 74.8 °F /  23.8 °C 66.3 °F /  19.1 °C 29.87in /  1011.4hPa North 2.0mph /  3.2km/h 2.0mph /  3.2km/h 75% 0.00in /  0mm
00:56 74.7 °F /  23.7 °C 66.3 °F /  19.1 °C 29.86in /  1011.1hPa NNW 1.0mph /  1.6km/h 2.0mph /  3.2km/h 75% 0.00in /  0mm
01:01 74.6 °F /  23.7 °C 66.2 °F /  19 °C 29.87in /  1011.4hPa North 2.0mph /  3.2km/h 3.0mph /  4.8km/h 75% 0.00in /  0mm
01:06 74.4 °F /  23.6 °C 66.0 °F /  18.9 °C 29.87in /  1011.4hPa North 1.0mph /  1.6km/h 2.0mph /  3.2km/h 75% 0.00in /  0mm
01:11 74.3 °F /  23.5 °C 66.2 °F /  19 °C 29.86in /  1011.1hPa NNW 1.0mph /  1.6km/h 2.0mph /  3.2km/h 76% 0.00in /  0mm
01:16 74.3 °F /  23.5 °C 66.2 °F /  19 °C 29.87in /  1011.4hPa North 2.0mph /  3.2km/h 2.0mph /  3.2km/h 76% 0.00in /  0mm
01:21 74.2 °F /  23.4 °C 66.2 °F /  19 °C 29.86in /  1011.1hPa North 1.0mph /  1.6km/h 3.0mph /  4.8km/h 76% 0.00in /  0mm
01:26 74.1 °F /  23.4 °C 66.1 °F /  18.9 °C 29.86in /  1011.1hPa NNE 1.0mph /  1.6km/h 2.0mph /  3.2km/h 76% 0.00in /  0mm
01:31 74.1 °F /  23.4 °C 65.7 °F /  18.7 °C 29.86in /  1011.1hPa NNE 1.0mph /  1.6km/h 3.0mph /  4.8km/h 75% 0.00in /  0mm
01:36 74.0 °F /  23.3 °C 65.6 °F /  18.7 °C 29.86in /  1011.1hPa NNW 1.0mph /  1.6km/h 2.0mph /  3.2km/h 75% 0.00in /  0mm
01:41 73.9 °F /  23.3 °C 65.9 °F /  18.8 °C 29.86in /  1011.1hPa North 1.0mph /  1.6km/h 3.0mph /  4.8km/h 76% 0.00in /  0mm
01:46 73.8 °F /  23.2 °C 65.8 °F /  18.8 °C 29.86in /  1011.1hPa NW 1.0mph /  1.6km/h 3.0mph /  4.8km/h 76% 0.00in /  0mm
01:51 73.8 °F /  23.2 °C 65.8 °F /  18.8 °C 29.86in /  1011.1hPa NNW 2.0mph /  3.2km/h 4.0mph /  6.4km/h 76% 0.00in /  0mm
01:56 73.7 °F /  23.2 °C 65.3 °F /  18.5 °C 29.87in /  1011.4hPa North 2.0mph /  3.2km/h 4.0mph /  6.4km/h 75% 0.00in /  0mm
02:01 73.6 °F /  23.1 °C 65.2 °F /  18.4 °C 29.87in /  1011.4hPa North 1.0mph /  1.6km/h 4.0mph /  6.4km/h 75% 0.00in /  0mm
02:07 73.5 °F /  23.1 °C 65.1 °F /  18.4 °C 29.87in /  1011.4hPa North 1.0mph /  1.6km/h 4.0mph /  6.4km/h 75% 0.00in /  0mm
02:12 73.5 °F /  23.1 °C 65.1 °F /  18.4 °C 29.87in /  1011.4hPa NE 1.0mph /  1.6km/h 2.0mph /  3.2km/h 75% 0.00in /  0mm
02:17 73.5 °F /  23.1 °C 64.7 °F /  18.2 °C 29.87in /  1011.4hPa North 3.0mph /  4.8km/h 4.0mph /  6.4km/h 74% 0.00in /  0mm
02:22 73.4 °F /  23 °C 64.6 °F /  18.1 °C 29.87in /  1011.4hPa NE 3.0mph /  4.8km/h 3.0mph /  4.8km/h 74% 0.00in /  0mm
02:27 73.3 °F /  22.9 °C 64.1 °F /  17.8 °C 29.87in /  1011.4hPa NNW 1.0mph /  1.6km/h 3.0mph /  4.8km/h 73% 0.00in /  0mm
02:32 73.2 °F /  22.9 °C 64.0 °F /  17.8 °C 29.87in /  1011.4hPa NNE 1.0mph /  1.6km/h 2.0mph /  3.2km/h 73% 0.00in /  0mm
02:37 73.2 °F /  22.9 °C 64.0 °F /  17.8 °C 29.87in /  1011.4hPa NE 3.0mph /  4.8km/h 3.0mph /  4.8km/h 73% 0.00in /  0mm
02:42 73.1 °F /  22.8 °C 63.9 °F /  17.7 °C 29.87in /  1011.4hPa NNE 2.0mph /  3.2km/h 2.0mph /  3.2km/h 73% 0.00in /  0mm
02:47 73.0 °F /  22.8 °C 63.5 °F /  17.5 °C 29.87in /  1011.4hPa NE 3.0mph /  4.8km/h 3.0mph /  4.8km/h 72% 0.00in /  0mm
02:52 72.9 °F /  22.7 °C 63.3 °F /  17.4 °C 29.87in /  1011.4hPa NNE 1.0mph /  1.6km/h 3.0mph /  4.8km/h 72% 0.00in /  0mm
02:57 72.9 °F /  22.7 °C 63.3 °F /  17.4 °C 29.87in /  1011.4hPa NE 2.0mph /  3.2km/h 5.0mph /  8km/h 72% 0.00in /  0mm
03:02 72.9 °F /  22.7 °C 63.3 °F /  17.4 °C 29.87in /  1011.4hPa NNE 2.0mph /  3.2km/h 4.0mph /  6.4km/h 72% 0.00in /  0mm
03:07 72.8 °F /  22.7 °C 63.3 °F /  17.4 °C 29.86in /  1011.1hPa NE 2.0mph /  3.2km/h 4.0mph /  6.4km/h 72% 0.00in /  0mm
03:12 72.8 °F /  22.7 °C 62.9 °F /  17.2 °C 29.86in /  1011.1hPa NNE 1.0mph /  1.6km/h 5.0mph /  8km/h 71% 0.00in /  0mm
03:17 72.8 °F /  22.7 °C 62.9 °F /  17.2 °C 29.86in /  1011.1hPa NNE 2.0mph /  3.2km/h 3.0mph /  4.8km/h 71% 0.00in /  0mm
03:22 72.7 °F /  22.6 °C 62.8 °F /  17.1 °C 29.86in /  1011.1hPa North 2.0mph /  3.2km/h 4.0mph /  6.4km/h 71% 0.00in /  0mm
03:27 72.5 °F /  22.5 °C 62.6 °F /  17 °C 29.86in /  1011.1hPa NNE 2.0mph /  3.2km/h 3.0mph /  4.8km/h 71% 0.00in /  0mm
03:32 72.4 °F /  22.4 °C 62.5 °F /  16.9 °C 29.86in /  1011.1hPa NE 2.0mph /  3.2km/h 4.0mph /  6.4km/h 71% 0.00in /  0mm
03:37 72.3 °F /  22.4 °C 62.4 °F /  16.9 °C 29.86in /  1011.1hPa NNE 1.0mph /  1.6km/h 3.0mph /  4.8km/h 71% 0.00in /  0mm
03:42 72.1 °F /  22.3 °C 62.2 °F /  16.8 °C 29.86in /  1011.1hPa NNE 2.0mph /  3.2km/h 4.0mph /  6.4km/h 71% 0.00in /  0mm
03:47 72.1 °F /  22.3 °C 62.2 °F /  16.8 °C 29.85in /  1010.7hPa NNE 3.0mph /  4.8km/h 4.0mph /  6.4km/h 71% 0.00in /  0mm
03:52 72.3 °F /  22.4 °C 62.0 °F /  16.7 °C 29.85in /  1010.7hPa NE 3.0mph /  4.8km/h 4.0mph /  6.4km/h 70% 0.00in /  0mm
03:57 72.3 °F /  22.4 °C 62.0 °F /  16.7 °C 29.85in /  1010.7hPa NE 2.0mph /  3.2km/h 3.0mph /  4.8km/h 70% 0.00in /  0mm
04:02 72.2 °F /  22.3 °C 61.9 °F /  16.6 °C 29.85in /  1010.7hPa NE 2.0mph /  3.2km/h 3.0mph /  4.8km/h 70% 0.00in /  0mm
04:07 72.1 °F /  22.3 °C 61.8 °F /  16.6 °C 29.85in /  1010.7hPa NNE 1.0mph /  1.6km/h 3.0mph /  4.8km/h 70% 0.00in /  0mm
04:12 71.8 °F /  22.1 °C 61.5 °F /  16.4 °C 29.85in /  1010.7hPa NNE 2.0mph /  3.2km/h 2.0mph /  3.2km/h 70% 0.00in /  0mm
04:17 71.6 °F /  22 °C 61.7 °F /  16.5 °C 29.85in /  1010.7hPa NNE 2.0mph /  3.2km/h 3.0mph /  4.8km/h 71% 0.00in /  0mm
04:22 71.5 °F /  21.9 °C 61.6 °F /  16.4 °C 29.85in /  1010.7hPa NE 2.0mph /  3.2km/h 3.0mph /  4.8km/h 71% 0.00in /  0mm
04:27 71.4 °F /  21.9 °C 61.5 °F /  16.4 °C 29.85in /  1010.7hPa NNE 2.0mph /  3.2km/h 3.0mph /  4.8km/h 71% 0.00in /  0mm
04:32 71.2 °F /  21.8 °C 61.3 °F /  16.3 °C 29.85in /  1010.7hPa Calm   2.0mph /  3.2km/h 71% 0.00in /  0mm
04:37 70.9 °F /  21.6 °C 61.4 °F /  16.3 °C 29.85in /  1010.7hPa NNE 1.0mph /  1.6km/h 2.0mph /  3.2km/h 72% 0.00in /  0mm
04:42 70.7 °F /  21.5 °C 61.2 °F /  16.2 °C 29.85in /  1010.7hPa NNE 1.0mph /  1.6km/h 2.0mph /  3.2km/h 72% 0.00in /  0mm
04:47 70.5 °F /  21.4 °C 61.4 °F /  16.3 °C 29.85in /  1010.7hPa NE 1.0mph /  1.6km/h 2.0mph /  3.2km/h 73% 0.00in /  0mm
04:52 70.5 °F /  21.4 °C 61.4 °F /  16.3 °C 29.85in /  1010.7hPa NNE 1.0mph /  1.6km/h 2.0mph /  3.2km/h 73% 0.00in /  0mm
04:57 70.4 °F /  21.3 °C 61.3 °F /  16.3 °C 29.85in /  1010.7hPa Calm   2.0mph /  3.2km/h 73% 0.00in /  0mm
05:02 70.5 °F /  21.4 °C 61.0 °F /  16.1 °C 29.85in /  1010.7hPa NNW 2.0mph /  3.2km/h 2.0mph /  3.2km/h 72% 0.00in /  0mm
05:07 70.4 °F /  21.3 °C 61.0 °F /  16.1 °C 29.85in /  1010.7hPa Calm   2.0mph /  3.2km/h 72% 0.00in /  0mm
05:12 70.3 °F /  21.3 °C 61.2 °F /  16.2 °C 29.85in /  1010.7hPa Calm   2.0mph /  3.2km/h 73% 0.00in /  0mm
05:17 70.2 °F /  21.2 °C 61.2 °F /  16.2 °C 29.85in /  1010.7hPa NNE 1.0mph /  1.6km/h 2.0mph /  3.2km/h 73% 0.00in /  0mm
05:22 70.1 °F /  21.2 °C 61.0 °F /  16.1 °C 29.85in /  1010.7hPa North 2.0mph /  3.2km/h 2.0mph /  3.2km/h 73% 0.00in /  0mm
05:27 70.2 °F /  21.2 °C 61.2 °F /  16.2 °C 29.85in /  1010.7hPa NNE 1.0mph /  1.6km/h 3.0mph /  4.8km/h 73% 0.00in /  0mm
05:32 70.1 °F /  21.2 °C 61.0 °F /  16.1 °C 29.85in /  1010.7hPa NNE 2.0mph /  3.2km/h 2.0mph /  3.2km/h 73% 0.00in /  0mm
05:37 69.9 °F /  21.1 °C 60.9 °F /  16.1 °C 29.85in /  1010.7hPa NNE 1.0mph /  1.6km/h 3.0mph /  4.8km/h 73% 0.00in /  0mm
05:42 69.7 °F /  20.9 °C 60.7 °F /  15.9 °C 29.85in /  1010.7hPa NNE 1.0mph /  1.6km/h 2.0mph /  3.2km/h 73% 0.00in /  0mm
05:47 69.5 °F /  20.8 °C 60.9 °F /  16.1 °C 29.85in /  1010.7hPa North 1.0mph /  1.6km/h 3.0mph /  4.8km/h 74% 0.00in /  0mm
05:52 69.1 °F /  20.6 °C 60.8 °F /  16 °C 29.85in /  1010.7hPa North 2.0mph /  3.2km/h 2.0mph /  3.2km/h 75% 0.00in /  0mm
05:57 68.7 °F /  20.4 °C 60.8 °F /  16 °C 29.85in /  1010.7hPa North 2.0mph /  3.2km/h 2.0mph /  3.2km/h 76% 0.00in /  0mm
06:02 68.4 °F /  20.2 °C 60.5 °F /  15.8 °C 29.86in /  1011.1hPa North 2.0mph /  3.2km/h 3.0mph /  4.8km/h 76% 0.00in /  0mm
06:07 68.4 °F /  20.2 °C 60.5 °F /  15.8 °C 29.86in /  1011.1hPa North 2.0mph /  3.2km/h 4.0mph /  6.4km/h 76% 0.00in /  0mm
06:12 68.4 °F /  20.2 °C 60.5 °F /  15.8 °C 29.86in /  1011.1hPa NNE 1.0mph /  1.6km/h 2.0mph /  3.2km/h 76% 0.00in /  0mm
06:17 68.7 °F /  20.4 °C 60.8 °F /  16 °C 29.86in /  1011.1hPa NNE 3.0mph /  4.8km/h 3.0mph /  4.8km/h 76% 0.00in /  0mm
06:22 69.0 °F /  20.6 °C 60.8 °F /  16 °C 29.86in /  1011.1hPa NNE 2.0mph /  3.2km/h 3.0mph /  4.8km/h 75% 0.00in /  0mm
06:27 69.1 °F /  20.6 °C 60.5 °F /  15.8 °C 29.86in /  1011.1hPa NNE 2.0mph /  3.2km/h 4.0mph /  6.4km/h 74% 0.00in /  0mm
06:33 69.2 °F /  20.7 °C 60.6 °F /  15.9 °C 29.86in /  1011.1hPa NNE 1.0mph /  1.6km/h 3.0mph /  4.8km/h 74% 0.00in /  0mm
06:38 69.0 °F /  20.6 °C 60.8 °F /  16 °C 29.87in /  1011.4hPa NNE 2.0mph /  3.2km/h 4.0mph /  6.4km/h 75% 0.00in /  0mm
06:43 69.0 °F /  20.6 °C 60.8 °F /  16 °C 29.87in /  1011.4hPa NNE 3.0mph /  4.8km/h 3.0mph /  4.8km/h 75% 0.00in /  0mm
06:48 69.0 °F /  20.6 °C 60.8 °F /  16 °C 29.87in /  1011.4hPa NNE 2.0mph /  3.2km/h 3.0mph /  4.8km/h 75% 0.00in /  0mm
06:53 69.0 °F /  20.6 °C 60.8 °F /  16 °C 29.87in /  1011.4hPa NE 2.0mph /  3.2km/h 3.0mph /  4.8km/h 75% 0.00in /  0mm
06:58 69.0 °F /  20.6 °C 60.8 °F /  16 °C 29.87in /  1011.4hPa NNE 2.0mph /  3.2km/h 4.0mph /  6.4km/h 75% 0.00in /  0mm
07:03 69.2 °F /  20.7 °C 61.0 °F /  16.1 °C 29.87in /  1011.4hPa NE 2.0mph /  3.2km/h 3.0mph /  4.8km/h 75% 0.00in /  0mm
07:08 69.6 °F /  20.9 °C 61.0 °F /  16.1 °C 29.87in /  1011.4hPa NNE 1.0mph /  1.6km/h 3.0mph /  4.8km/h 74% 0.00in /  0mm
07:13 70.0 °F /  21.1 °C 61.0 °F /  16.1 °C 29.87in /  1011.4hPa NNE 1.0mph /  1.6km/h 2.0mph /  3.2km/h 73% 0.00in /  0mm
07:18 70.3 °F /  21.3 °C 61.2 °F /  16.2 °C 29.88in /  1011.7hPa NNE 2.0mph /  3.2km/h 3.0mph /  4.8km/h 73% 0.00in /  0mm
07:23 70.6 °F /  21.4 °C 61.1 °F /  16.2 °C 29.88in /  1011.7hPa NNE 2.0mph /  3.2km/h 3.0mph /  4.8km/h 72% 0.00in /  0mm
07:28 70.8 °F /  21.6 °C 61.3 °F /  16.3 °C 29.88in /  1011.7hPa NNE 1.0mph /  1.6km/h 3.0mph /  4.8km/h 72% 0.00in /  0mm
07:33 71.1 °F /  21.7 °C 61.6 °F /  16.4 °C 29.88in /  1011.7hPa NE 3.0mph /  4.8km/h 4.0mph /  6.4km/h 72% 0.00in /  0mm
07:38 71.2 °F /  21.8 °C 61.7 °F /  16.5 °C 29.88in /  1011.7hPa NE 2.0mph /  3.2km/h 4.0mph /  6.4km/h 72% 0.00in /  0mm
07:43 71.7 °F /  22.1 °C 61.8 °F /  16.6 °C 29.88in /  1011.7hPa NNE 2.0mph /  3.2km/h 4.0mph /  6.4km/h 71% 0.00in /  0mm
07:48 72.0 °F /  22.2 °C 62.1 °F /  16.7 °C 29.88in /  1011.7hPa North 3.0mph /  4.8km/h 3.0mph /  4.8km/h 71% 0.00in /  0mm
07:53 72.2 °F /  22.3 °C 62.7 °F /  17.1 °C 29.89in /  1012.1hPa NNE 4.0mph /  6.4km/h 4.0mph /  6.4km/h 72% 0.00in /  0mm
07:58 72.5 °F /  22.5 °C 62.6 °F /  17 °C 29.89in /  1012.1hPa NNE 1.0mph /  1.6km/h 4.0mph /  6.4km/h 71% 0.00in /  0mm
08:03 72.8 °F /  22.7 °C 62.9 °F /  17.2 °C 29.89in /  1012.1hPa NE 2.0mph /  3.2km/h 4.0mph /  6.4km/h 71% 0.00in /  0mm
08:08 73.2 °F /  22.9 °C 63.2 °F /  17.3 °C 29.89in /  1012.1hPa NNW 1.0mph /  1.6km/h 3.0mph /  4.8km/h 71% 0.00in /  0mm
08:13 73.5 °F /  23.1 °C 63.5 °F /  17.5 °C 29.89in /  1012.1hPa NNE 4.0mph /  6.4km/h 4.0mph /  6.4km/h 71% 0.00in /  0mm
08:18 73.7 °F /  23.2 °C 63.3 °F /  17.4 °C 29.89in /  1012.1hPa NNE 2.0mph /  3.2km/h 4.0mph /  6.4km/h 70% 0.00in /  0mm
08:23 74.0 °F /  23.3 °C 62.8 °F /  17.1 °C 29.89in /  1012.1hPa NE 3.0mph /  4.8km/h 5.0mph /  8km/h 68% 0.00in /  0mm
08:28 74.3 °F /  23.5 °C 63.1 °F /  17.3 °C 29.89in /  1012.1hPa NE 4.0mph /  6.4km/h 6.0mph /  9.7km/h 68% 0.00in /  0mm
08:33 74.6 °F /  23.7 °C 62.9 °F /  17.2 °C 29.89in /  1012.1hPa NNE 5.0mph /  8km/h 5.0mph /  8km/h 67% 0.00in /  0mm
08:38 75.0 °F /  23.9 °C 63.3 °F /  17.4 °C 29.89in /  1012.1hPa NE 4.0mph /  6.4km/h 5.0mph /  8km/h 67% 0.00in /  0mm
08:43 75.5 °F /  24.2 °C 63.4 °F /  17.4 °C 29.89in /  1012.1hPa NNW 2.0mph /  3.2km/h 7.0mph /  11.3km/h 66% 0.00in /  0mm
08:48 75.7 °F /  24.3 °C 64.0 °F /  17.8 °C 29.90in /  1012.4hPa NNE 3.0mph /  4.8km/h 5.0mph /  8km/h 67% 0.00in /  0mm
08:53 76.2 °F /  24.6 °C 64.0 °F /  17.8 °C 29.90in /  1012.4hPa NNE 2.0mph /  3.2km/h 6.0mph /  9.7km/h 66% 0.00in /  0mm
08:58 76.7 °F /  24.8 °C 63.6 °F /  17.6 °C 29.90in /  1012.4hPa NE 4.0mph /  6.4km/h 5.0mph /  8km/h 64% 0.00in /  0mm
09:03 77.1 °F /  25.1 °C 64.4 °F /  18 °C 29.90in /  1012.4hPa NNE 3.0mph /  4.8km/h 6.0mph /  9.7km/h 65% 0.00in /  0mm
09:08 77.3 °F /  25.2 °C 63.7 °F /  17.6 °C 29.90in /  1012.4hPa NE 5.0mph /  8km/h 7.0mph /  11.3km/h 63% 0.00in /  0mm
09:13 77.6 °F /  25.3 °C 64.5 °F /  18.1 °C 29.90in /  1012.4hPa NE 4.0mph /  6.4km/h 8.0mph /  12.9km/h 64% 0.00in /  0mm
09:18 77.8 °F /  25.4 °C 63.3 °F /  17.4 °C 29.90in /  1012.4hPa NE 8.0mph /  12.9km/h 10.0mph /  16.1km/h 61% 0.00in /  0mm
09:23 78.1 °F /  25.6 °C 63.6 °F /  17.6 °C 29.90in /  1012.4hPa NE 5.0mph /  8km/h 8.0mph /  12.9km/h 61% 0.00in /  0mm
09:28 78.5 °F /  25.8 °C 63.5 °F /  17.5 °C 29.91in /  1012.8hPa NNE 7.0mph /  11.3km/h 10.0mph /  16.1km/h 60% 0.00in /  0mm
09:33 78.7 °F /  25.9 °C 63.2 °F /  17.3 °C 29.90in /  1012.4hPa NNE 5.0mph /  8km/h 7.0mph /  11.3km/h 59% 0.00in /  0mm
09:38 79.2 °F /  26.2 °C 63.7 °F /  17.6 °C 29.90in /  1012.4hPa NNE 4.0mph /  6.4km/h 8.0mph /  12.9km/h 59% 0.00in /  0mm
09:43 79.4 °F /  26.3 °C 63.8 °F /  17.7 °C 29.90in /  1012.4hPa NNE 3.0mph /  4.8km/h 7.0mph /  11.3km/h 59% 0.00in /  0mm
09:48 79.8 °F /  26.6 °C 64.2 °F /  17.9 °C 29.90in /  1012.4hPa ENE 3.0mph /  4.8km/h 7.0mph /  11.3km/h 59% 0.00in /  0mm
09:54 80.1 °F /  26.7 °C 64.0 °F /  17.8 °C 29.90in /  1012.4hPa NE 6.0mph /  9.7km/h 7.0mph /  11.3km/h 58% 0.00in /  0mm
09:59 80.5 °F /  26.9 °C 63.4 °F /  17.4 °C 29.91in /  1012.8hPa NE 7.0mph /  11.3km/h 9.0mph /  14.5km/h 56% 0.00in /  0mm
10:04 80.7 °F /  27.1 °C 63.0 °F /  17.2 °C 29.90in /  1012.4hPa NE 4.0mph /  6.4km/h 8.0mph /  12.9km/h 55% 0.00in /  0mm
10:09 81.2 °F /  27.3 °C 63.0 °F /  17.2 °C 29.90in /  1012.4hPa NE 4.0mph /  6.4km/h 10.0mph /  16.1km/h 54% 0.00in /  0mm
10:14 81.2 °F /  27.3 °C 63.0 °F /  17.2 °C 29.90in /  1012.4hPa NE 4.0mph /  6.4km/h 8.0mph /  12.9km/h 54% 0.00in /  0mm
10:19 81.4 °F /  27.4 °C 63.2 °F /  17.3 °C 29.91in /  1012.8hPa North 6.0mph /  9.7km/h 8.0mph /  12.9km/h 54% 0.00in /  0mm
10:24 81.7 °F /  27.6 °C 64.5 °F /  18.1 °C 29.91in /  1012.8hPa NNE 6.0mph /  9.7km/h 7.0mph /  11.3km/h 56% 0.00in /  0mm
10:29 82.0 °F /  27.8 °C 64.3 °F /  17.9 °C 29.91in /  1012.8hPa East 6.0mph /  9.7km/h 10.0mph /  16.1km/h 55% 0.00in /  0mm
10:34 82.3 °F /  27.9 °C 62.9 °F /  17.2 °C 29.91in /  1012.8hPa NE 8.0mph /  12.9km/h 11.0mph /  17.7km/h 52% 0.00in /  0mm
10:39 82.5 °F /  28.1 °C 62.6 °F /  17 °C 29.91in /  1012.8hPa NNE 4.0mph /  6.4km/h 8.0mph /  12.9km/h 51% 0.00in /  0mm
10:44 82.9 °F /  28.3 °C 61.8 °F /  16.6 °C 29.91in /  1012.8hPa NE 6.0mph /  9.7km/h 9.0mph /  14.5km/h 49% 0.00in /  0mm
10:49 83.1 °F /  28.4 °C 63.1 °F /  17.3 °C 29.90in /  1012.4hPa NE 3.0mph /  4.8km/h 10.0mph /  16.1km/h 51% 0.00in /  0mm
10:54 83.5 °F /  28.6 °C 62.9 °F /  17.2 °C 29.90in /  1012.4hPa NE 10.0mph /  16.1km/h 10.0mph /  16.1km/h 50% 0.00in /  0mm
10:59 83.5 °F /  28.6 °C 62.3 °F /  16.8 °C 29.90in /  1012.4hPa NE 6.0mph /  9.7km/h 10.0mph /  16.1km/h 49% 0.00in /  0mm
11:04 83.9 °F /  28.8 °C 62.1 °F /  16.7 °C 29.90in /  1012.4hPa NNE 7.0mph /  11.3km/h 7.0mph /  11.3km/h 48% 0.00in /  0mm
11:09 84.0 °F /  28.9 °C 61.6 °F /  16.4 °C 29.90in /  1012.4hPa NE 5.0mph /  8km/h 15.0mph /  24.1km/h 47% 0.00in /  0mm
11:14 84.3 °F /  29.1 °C 62.5 °F /  16.9 °C 29.90in /  1012.4hPa NE 3.0mph /  4.8km/h 8.0mph /  12.9km/h 48% 0.00in /  0mm
11:19 84.9 °F /  29.4 °C 63.6 °F /  17.6 °C 29.91in /  1012.8hPa NE 6.0mph /  9.7km/h 8.0mph /  12.9km/h 49% 0.00in /  0mm
11:24 85.0 °F /  29.4 °C 65.4 °F /  18.6 °C 29.91in /  1012.8hPa NE 5.0mph /  8km/h 8.0mph /  12.9km/h 52% 0.00in /  0mm
11:29 84.9 °F /  29.4 °C 61.8 °F /  16.6 °C 29.91in /  1012.8hPa NE 5.0mph /  8km/h 8.0mph /  12.9km/h 46% 0.00in /  0mm
11:34 84.7 °F /  29.3 °C 62.3 °F /  16.8 °C 29.91in /  1012.8hPa ESE 4.0mph /  6.4km/h 9.0mph /  14.5km/h 47% 0.00in /  0mm
11:39 84.9 °F /  29.4 °C 64.2 °F /  17.9 °C 29.90in /  1012.4hPa ENE 7.0mph /  11.3km/h 8.0mph /  12.9km/h 50% 0.00in /  0mm
11:44 85.0 °F /  29.4 °C 61.9 °F /  16.6 °C 29.90in /  1012.4hPa ENE 4.0mph /  6.4km/h 8.0mph /  12.9km/h 46% 0.00in /  0mm
11:49 85.4 °F /  29.7 °C 62.9 °F /  17.2 °C 29.91in /  1012.8hPa NNE 3.0mph /  4.8km/h 9.0mph /  14.5km/h 47% 0.00in /  0mm
11:54 85.7 °F /  29.8 °C 62.6 °F /  17 °C 29.91in /  1012.8hPa NNE 5.0mph /  8km/h 9.0mph /  14.5km/h 46% 0.00in /  0mm
11:59 86.0 °F /  30 °C 64.0 °F /  17.8 °C 29.91in /  1012.8hPa North 4.0mph /  6.4km/h 6.0mph /  9.7km/h 48% 0.00in /  0mm
12:04 86.0 °F /  30 °C 62.2 °F /  16.8 °C 29.91in /  1012.8hPa ENE 5.0mph /  8km/h 8.0mph /  12.9km/h 45% 0.00in /  0mm
12:09 85.9 °F /  29.9 °C 64.0 °F /  17.8 °C 29.91in /  1012.8hPa NE 1.0mph /  1.6km/h 6.0mph /  9.7km/h 48% 0.00in /  0mm
12:14 86.2 °F /  30.1 °C 62.4 °F /  16.9 °C 29.90in /  1012.4hPa East 2.0mph /  3.2km/h 5.0mph /  8km/h 45% 0.00in /  0mm
12:19 86.3 °F /  30.2 °C 61.2 °F /  16.2 °C 29.90in /  1012.4hPa East 2.0mph /  3.2km/h 8.0mph /  12.9km/h 43% 0.00in /  0mm
12:24 86.3 °F /  30.2 °C 62.5 °F /  16.9 °C 29.90in /  1012.4hPa ENE 4.0mph /  6.4km/h 7.0mph /  11.3km/h 45% 0.00in /  0mm
12:29 86.3 °F /  30.2 °C 61.8 °F /  16.6 °C 29.91in /  1012.8hPa ENE 4.0mph /  6.4km/h 8.0mph /  12.9km/h 44% 0.00in /  0mm
12:34 86.6 °F /  30.3 °C 61.5 °F /  16.4 °C 29.91in /  1012.8hPa NE 5.0mph /  8km/h 8.0mph /  12.9km/h 43% 0.00in /  0mm
12:39 87.0 °F /  30.6 °C 63.7 °F /  17.6 °C 29.91in /  1012.8hPa NE 5.0mph /  8km/h 5.0mph /  8km/h 46% 0.00in /  0mm
12:44 87.3 °F /  30.7 °C 63.4 °F /  17.4 °C 29.91in /  1012.8hPa NW 2.0mph /  3.2km/h 4.0mph /  6.4km/h 45% 0.00in /  0mm
12:49 87.8 °F /  31 °C 62.5 °F /  16.9 °C 29.91in /  1012.8hPa NE 4.0mph /  6.4km/h 6.0mph /  9.7km/h 43% 0.00in /  0mm
12:54 87.7 °F /  30.9 °C 62.5 °F /  16.9 °C 29.91in /  1012.8hPa North 4.0mph /  6.4km/h 9.0mph /  14.5km/h 43% 0.00in /  0mm
12:59 87.8 °F /  31 °C 62.5 °F /  16.9 °C 29.91in /  1012.8hPa East 5.0mph /  8km/h 6.0mph /  9.7km/h 43% 0.00in /  0mm
13:04 87.9 °F /  31.1 °C 61.3 °F /  16.3 °C 29.91in /  1012.8hPa NE 5.0mph /  8km/h 7.0mph /  11.3km/h 41% 0.00in /  0mm
13:09 88.1 °F /  31.2 °C 63.5 °F /  17.5 °C 29.90in /  1012.4hPa NE 5.0mph /  8km/h 5.0mph /  8km/h 44% 0.00in /  0mm
13:14 88.1 °F /  31.2 °C 62.1 °F /  16.7 °C 29.90in /  1012.4hPa WNW 2.0mph /  3.2km/h 4.0mph /  6.4km/h 42% 0.00in /  0mm
13:19 88.6 °F /  31.4 °C 60.5 °F /  15.8 °C 29.90in /  1012.4hPa NNW 3.0mph /  4.8km/h 7.0mph /  11.3km/h 39% 0.00in /  0mm
13:24 88.4 °F /  31.3 °C 60.3 °F /  15.7 °C 29.90in /  1012.4hPa ENE 1.0mph /  1.6km/h 9.0mph /  14.5km/h 39% 0.00in /  0mm
13:29 88.4 °F /  31.3 °C 59.6 °F /  15.3 °C 29.90in /  1012.4hPa NE 7.0mph /  11.3km/h 9.0mph /  14.5km/h 38% 0.00in /  0mm
13:34 88.2 °F /  31.2 °C 59.4 °F /  15.2 °C 29.89in /  1012.1hPa East 3.0mph /  4.8km/h 9.0mph /  14.5km/h 38% 0.00in /  0mm
13:39 88.3 °F /  31.3 °C 60.2 °F /  15.7 °C 29.90in /  1012.4hPa NE 4.0mph /  6.4km/h 8.0mph /  12.9km/h 39% 0.00in /  0mm
13:44 88.5 °F /  31.4 °C 59.7 °F /  15.4 °C 29.89in /  1012.1hPa NE 2.0mph /  3.2km/h 5.0mph /  8km/h 38% 0.00in /  0mm
13:50 88.7 °F /  31.5 °C 61.3 °F /  16.3 °C 29.89in /  1012.1hPa NW 1.0mph /  1.6km/h 6.0mph /  9.7km/h 40% 0.00in /  0mm
13:55 89.5 °F /  31.9 °C 60.6 °F /  15.9 °C 29.89in /  1012.1hPa NE 3.0mph /  4.8km/h 7.0mph /  11.3km/h 38% 0.00in /  0mm
14:00 88.9 °F /  31.6 °C 61.5 °F /  16.4 °C 29.89in /  1012.1hPa NE 2.0mph /  3.2km/h 7.0mph /  11.3km/h 40% 0.00in /  0mm
14:05 88.9 °F /  31.6 °C 59.3 °F /  15.2 °C 29.89in /  1012.1hPa NNE 4.0mph /  6.4km/h 6.0mph /  9.7km/h 37% 0.00in /  0mm
14:10 89.0 °F /  31.7 °C 60.1 °F /  15.6 °C 29.89in /  1012.1hPa North 7.0mph /  11.3km/h 12.0mph /  19.3km/h 38% 0.00in /  0mm
14:15 89.0 °F /  31.7 °C 60.1 °F /  15.6 °C 29.89in /  1012.1hPa NW 2.0mph /  3.2km/h 6.0mph /  9.7km/h 38% 0.00in /  0mm
14:20 89.6 °F /  32 °C 60.7 °F /  15.9 °C 29.89in /  1012.1hPa NNE 5.0mph /  8km/h 7.0mph /  11.3km/h 38% 0.00in /  0mm
14:25 89.9 °F /  32.2 °C 61.7 °F /  16.5 °C 29.89in /  1012.1hPa ENE 4.0mph /  6.4km/h 7.0mph /  11.3km/h 39% 0.00in /  0mm
14:30 89.7 °F /  32.1 °C 59.2 °F /  15.1 °C 29.89in /  1012.1hPa East 3.0mph /  4.8km/h 6.0mph /  9.7km/h 36% 0.00in /  0mm
14:35 90.0 °F /  32.2 °C 59.5 °F /  15.3 °C 29.89in /  1012.1hPa NNE 4.0mph /  6.4km/h 7.0mph /  11.3km/h 36% 0.00in /  0mm
14:40 90.2 °F /  32.3 °C 61.2 °F /  16.2 °C 29.88in /  1011.7hPa West 1.0mph /  1.6km/h 4.0mph /  6.4km/h 38% 0.00in /  0mm
14:45 90.7 °F /  32.6 °C 60.9 °F /  16.1 °C 29.88in /  1011.7hPa NE 2.0mph /  3.2km/h 9.0mph /  14.5km/h 37% 0.00in /  0mm
14:50 90.4 °F /  32.4 °C 60.6 °F /  15.9 °C 29.88in /  1011.7hPa NE 3.0mph /  4.8km/h 7.0mph /  11.3km/h 37% 0.00in /  0mm
14:55 90.3 °F /  32.4 °C 60.5 °F /  15.8 °C 29.88in /  1011.7hPa East 6.0mph /  9.7km/h 9.0mph /  14.5km/h 37% 0.00in /  0mm
15:00 90.1 °F /  32.3 °C 59.6 °F /  15.3 °C 29.88in /  1011.7hPa NNW 7.0mph /  11.3km/h 7.0mph /  11.3km/h 36% 0.00in /  0mm
15:05 90.3 °F /  32.4 °C 59.8 °F /  15.4 °C 29.88in /  1011.7hPa NE 6.0mph /  9.7km/h 9.0mph /  14.5km/h 36% 0.00in /  0mm
15:10 90.2 °F /  32.3 °C 60.4 °F /  15.8 °C 29.88in /  1011.7hPa NNE 3.0mph /  4.8km/h 6.0mph /  9.7km/h 37% 0.00in /  0mm
15:15 90.2 °F /  32.3 °C 59.7 °F /  15.4 °C 29.87in /  1011.4hPa NNE 6.0mph /  9.7km/h 8.0mph /  12.9km/h 36% 0.00in /  0mm
15:20 90.2 °F /  32.3 °C 60.4 °F /  15.8 °C 29.88in /  1011.7hPa NNW 3.0mph /  4.8km/h 4.0mph /  6.4km/h 37% 0.00in /  0mm
15:25 90.6 °F /  32.6 °C 57.6 °F /  14.2 °C 29.88in /  1011.7hPa NE 2.0mph /  3.2km/h 6.0mph /  9.7km/h 33% 0.00in /  0mm
15:30 90.9 °F /  32.7 °C 61.0 °F /  16.1 °C 29.87in /  1011.4hPa WSW 4.0mph /  6.4km/h 4.0mph /  6.4km/h 37% 0.00in /  0mm
15:35 91.2 °F /  32.9 °C 59.8 °F /  15.4 °C 29.87in /  1011.4hPa NW 2.0mph /  3.2km/h 6.0mph /  9.7km/h 35% 0.00in /  0mm
15:40 91.4 °F /  33 °C 58.3 °F /  14.6 °C 29.87in /  1011.4hPa NNE 7.0mph /  11.3km/h 7.0mph /  11.3km/h 33% 0.00in /  0mm
15:45 91.2 °F /  32.9 °C 57.2 °F /  14 °C 29.87in /  1011.4hPa NNW 3.0mph /  4.8km/h 7.0mph /  11.3km/h 32% 0.00in /  0mm
15:50 91.7 °F /  33.2 °C 57.7 °F /  14.3 °C 29.87in /  1011.4hPa ENE 3.0mph /  4.8km/h 5.0mph /  8km/h 32% 0.00in /  0mm
15:55 91.6 °F /  33.1 °C 56.7 °F /  13.7 °C 29.87in /  1011.4hPa North 6.0mph /  9.7km/h 8.0mph /  12.9km/h 31% 0.00in /  0mm
16:00 91.4 °F /  33 °C 58.3 °F /  14.6 °C 29.87in /  1011.4hPa North 8.0mph /  12.9km/h 8.0mph /  12.9km/h 33% 0.00in /  0mm
16:05 91.5 °F /  33.1 °C 58.4 °F /  14.7 °C 29.87in /  1011.4hPa NW 4.0mph /  6.4km/h 8.0mph /  12.9km/h 33% 0.00in /  0mm
16:10 91.7 °F /  33.2 °C 58.5 °F /  14.7 °C 29.87in /  1011.4hPa NNE 1.0mph /  1.6km/h 6.0mph /  9.7km/h 33% 0.00in /  0mm
16:15 91.8 °F /  33.2 °C 58.6 °F /  14.8 °C 29.87in /  1011.4hPa North 2.0mph /  3.2km/h 9.0mph /  14.5km/h 33% 0.00in /  0mm
16:20 91.7 °F /  33.2 °C 56.8 °F /  13.8 °C 29.87in /  1011.4hPa North 4.0mph /  6.4km/h 8.0mph /  12.9km/h 31% 0.00in /  0mm
16:25 91.7 °F /  33.2 °C 59.4 °F /  15.2 °C 29.87in /  1011.4hPa NNE 8.0mph /  12.9km/h 10.0mph /  16.1km/h 34% 0.00in /  0mm
16:30 91.5 °F /  33.1 °C 57.5 °F /  14.2 °C 29.87in /  1011.4hPa NE 5.0mph /  8km/h 6.0mph /  9.7km/h 32% 0.00in /  0mm
16:35 91.7 °F /  33.2 °C 55.9 °F /  13.3 °C 29.87in /  1011.4hPa NE 2.0mph /  3.2km/h 5.0mph /  8km/h 30% 0.00in /  0mm
16:40 91.9 °F /  33.3 °C 55.1 °F /  12.8 °C 29.86in /  1011.1hPa NW 6.0mph /  9.7km/h 6.0mph /  9.7km/h 29% 0.00in /  0mm
16:46 92.0 °F /  33.3 °C 53.3 °F /  11.8 °C 29.86in /  1011.1hPa NE 5.0mph /  8km/h 8.0mph /  12.9km/h 27% 0.00in /  0mm
16:51 92.3 °F /  33.5 °C 52.5 °F /  11.4 °C 29.86in /  1011.1hPa ENE 2.0mph /  3.2km/h 5.0mph /  8km/h 26% 0.00in /  0mm
16:56 92.0 °F /  33.3 °C 53.3 °F /  11.8 °C 29.86in /  1011.1hPa NNW 2.0mph /  3.2km/h 6.0mph /  9.7km/h 27% 0.00in /  0mm
17:01 92.0 °F /  33.3 °C 53.3 °F /  11.8 °C 29.86in /  1011.1hPa SW 1.0mph /  1.6km/h 3.0mph /  4.8km/h 27% 0.00in /  0mm
17:06 92.7 °F /  33.7 °C 53.9 °F /  12.2 °C 29.86in /  1011.1hPa East 2.0mph /  3.2km/h 8.0mph /  12.9km/h 27% 0.00in /  0mm
17:11 92.7 °F /  33.7 °C 51.8 °F /  11 °C 29.86in /  1011.1hPa NE 7.0mph /  11.3km/h 10.0mph /  16.1km/h 25% 0.00in /  0mm
17:16 92.2 °F /  33.4 °C 55.4 °F /  13 °C 29.86in /  1011.1hPa NNE 4.0mph /  6.4km/h 4.0mph /  6.4km/h 29% 0.00in /  0mm
17:21 92.2 °F /  33.4 °C 53.4 °F /  11.9 °C 29.86in /  1011.1hPa NE 2.0mph /  3.2km/h 5.0mph /  8km/h 27% 0.00in /  0mm
17:26 92.3 °F /  33.5 °C 53.5 °F /  11.9 °C 29.86in /  1011.1hPa ESE 3.0mph /  4.8km/h 5.0mph /  8km/h 27% 0.00in /  0mm
17:31 92.4 °F /  33.6 °C 52.6 °F /  11.4 °C 29.86in /  1011.1hPa WNW 2.0mph /  3.2km/h 5.0mph /  8km/h 26% 0.00in /  0mm
17:36 92.8 °F /  33.8 °C 54.9 °F /  12.7 °C 29.86in /  1011.1hPa East 2.0mph /  3.2km/h 4.0mph /  6.4km/h 28% 0.00in /  0mm
17:41 92.7 °F /  33.7 °C 54.8 °F /  12.7 °C 29.86in /  1011.1hPa WNW 2.0mph /  3.2km/h 4.0mph /  6.4km/h 28% 0.00in /  0mm
17:46 93.4 °F /  34.1 °C 59.2 °F /  15.1 °C 29.86in /  1011.1hPa NNE 3.0mph /  4.8km/h 4.0mph /  6.4km/h 32% 0.00in /  0mm
17:51 93.5 °F /  34.2 °C 57.5 °F /  14.2 °C 29.86in /  1011.1hPa ESE 4.0mph /  6.4km/h 6.0mph /  9.7km/h 30% 0.00in /  0mm
17:56 92.8 °F /  33.8 °C 55.9 °F /  13.3 °C 29.86in /  1011.1hPa Calm   7.0mph /  11.3km/h 29% 0.00in /  0mm
18:01 93.2 °F /  34 °C 55.3 °F /  12.9 °C 29.86in /  1011.1hPa ESE 4.0mph /  6.4km/h 5.0mph /  8km/h 28% 0.00in /  0mm
18:06 92.8 °F /  33.8 °C 54.9 °F /  12.7 °C 29.86in /  1011.1hPa NE 2.0mph /  3.2km/h 5.0mph /  8km/h 28% 0.00in /  0mm
18:11 93.1 °F /  33.9 °C 56.2 °F /  13.4 °C 29.86in /  1011.1hPa NNW 1.0mph /  1.6km/h 3.0mph /  4.8km/h 29% 0.00in /  0mm
18:16 93.5 °F /  34.2 °C 55.5 °F /  13.1 °C 29.86in /  1011.1hPa NW 2.0mph /  3.2km/h 3.0mph /  4.8km/h 28% 0.00in /  0mm
18:21 93.9 °F /  34.4 °C 55.9 °F /  13.3 °C 29.86in /  1011.1hPa Calm   2.0mph /  3.2km/h 28% 0.00in /  0mm
18:26 94.5 °F /  34.7 °C 56.4 °F /  13.6 °C 29.86in /  1011.1hPa NNE 2.0mph /  3.2km/h 4.0mph /  6.4km/h 28% 0.00in /  0mm
18:31 93.6 °F /  34.2 °C 55.6 °F /  13.1 °C 29.86in /  1011.1hPa NNW 3.0mph /  4.8km/h 4.0mph /  6.4km/h 28% 0.00in /  0mm
18:36 93.0 °F /  33.9 °C 57.0 °F /  13.9 °C 29.86in /  1011.1hPa North 2.0mph /  3.2km/h 5.0mph /  8km/h 30% 0.00in /  0mm
18:41 92.7 °F /  33.7 °C 53.9 °F /  12.2 °C 29.85in /  1010.7hPa East 3.0mph /  4.8km/h 6.0mph /  9.7km/h 27% 0.00in /  0mm
18:46 92.5 °F /  33.6 °C 54.7 °F /  12.6 °C 29.85in /  1010.7hPa NE 3.0mph /  4.8km/h 3.0mph /  4.8km/h 28% 0.00in /  0mm
18:51 92.6 °F /  33.7 °C 54.8 °F /  12.7 °C 29.85in /  1010.7hPa North 3.0mph /  4.8km/h 5.0mph /  8km/h 28% 0.00in /  0mm
18:56 92.4 °F /  33.6 °C 54.6 °F /  12.6 °C 29.85in /  1010.7hPa NNE 3.0mph /  4.8km/h 4.0mph /  6.4km/h 28% 0.00in /  0mm
19:01 92.2 °F /  33.4 °C 56.3 °F /  13.5 °C 29.85in /  1010.7hPa NE 2.0mph /  3.2km/h 4.0mph /  6.4km/h 30% 0.00in /  0mm
19:06 92.0 °F /  33.3 °C 56.2 °F /  13.4 °C 29.85in /  1010.7hPa NE 1.0mph /  1.6km/h 4.0mph /  6.4km/h 30% 0.00in /  0mm
19:11 92.0 °F /  33.3 °C 57.1 °F /  13.9 °C 29.85in /  1010.7hPa NE 1.0mph /  1.6km/h 2.0mph /  3.2km/h 31% 0.00in /  0mm
19:16 91.9 °F /  33.3 °C 56.1 °F /  13.4 °C 29.85in /  1010.7hPa North 1.0mph /  1.6km/h 3.0mph /  4.8km/h 30% 0.00in /  0mm
19:21 91.7 °F /  33.2 °C 55.9 °F /  13.3 °C 29.85in /  1010.7hPa North 2.0mph /  3.2km/h 3.0mph /  4.8km/h 30% 0.00in /  0mm
19:26 91.6 °F /  33.1 °C 58.5 °F /  14.7 °C 29.85in /  1010.7hPa NNW 2.0mph /  3.2km/h 2.0mph /  3.2km/h 33% 0.00in /  0mm
19:31 91.3 °F /  32.9 °C 59.0 °F /  15 °C 29.86in /  1011.1hPa Calm   2.0mph /  3.2km/h 34% 0.00in /  0mm
19:36 91.1 °F /  32.8 °C 58.8 °F /  14.9 °C 29.86in /  1011.1hPa Calm   2.0mph /  3.2km/h 34% 0.00in /  0mm
19:41 90.7 °F /  32.6 °C 60.1 °F /  15.6 °C 29.86in /  1011.1hPa North 1.0mph /  1.6km/h 1.0mph /  1.6km/h 36% 0.00in /  0mm
19:46 90.2 °F /  32.3 °C 61.9 °F /  16.6 °C 29.86in /  1011.1hPa Calm   1.0mph /  1.6km/h 39% 0.00in /  0mm
19:51 89.5 °F /  31.9 °C 61.3 °F /  16.3 °C 29.85in /  1010.7hPa Calm   1.0mph /  1.6km/h 39% 0.00in /  0mm
19:56 88.8 °F /  31.6 °C 60.7 °F /  15.9 °C 29.85in /  1010.7hPa Calm   1.0mph /  1.6km/h 39% 0.00in /  0mm
20:01 88.3 °F /  31.3 °C 61.6 °F /  16.4 °C 29.85in /  1010.7hPa Calm     41% 0.00in /  0mm
20:06 88.1 °F /  31.2 °C 61.5 °F /  16.4 °C 29.85in /  1010.7hPa Calm   1.0mph /  1.6km/h 41% 0.00in /  0mm
20:11 88.3 °F /  31.3 °C 64.9 °F /  18.3 °C 29.84in /  1010.4hPa North 1.0mph /  1.6km/h 1.0mph /  1.6km/h 46% 0.00in /  0mm
20:17 87.2 °F /  30.7 °C 65.7 °F /  18.7 °C 29.84in /  1010.4hPa North 1.0mph /  1.6km/h 1.0mph /  1.6km/h 49% 0.00in /  0mm
20:21 86.2 °F /  30.1 °C 61.1 °F /  16.2 °C 29.84in /  1010.4hPa Calm   1.0mph /  1.6km/h 43% 0.00in /  0mm
20:27 86.6 °F /  30.3 °C 63.4 °F /  17.4 °C 29.84in /  1010.4hPa Calm     46% 0.00in /  0mm
20:32 86.9 °F /  30.5 °C 64.3 °F /  17.9 °C 29.84in /  1010.4hPa North 1.0mph /  1.6km/h 1.0mph /  1.6km/h 47% 0.00in /  0mm
20:37 86.1 °F /  30.1 °C 64.7 °F /  18.2 °C 29.84in /  1010.4hPa Calm     49% 0.00in /  0mm
20:42 85.6 °F /  29.8 °C 65.4 °F /  18.6 °C 29.84in /  1010.4hPa NNW 1.0mph /  1.6km/h 2.0mph /  3.2km/h 51% 0.00in /  0mm
20:47 84.5 °F /  29.2 °C 65.5 °F /  18.6 °C 29.84in /  1010.4hPa Calm   2.0mph /  3.2km/h 53% 0.00in /  0mm
20:52 83.6 °F /  28.7 °C 65.7 °F /  18.7 °C 29.84in /  1010.4hPa Calm     55% 0.00in /  0mm
20:57 82.7 °F /  28.2 °C 64.4 °F /  18 °C 29.84in /  1010.4hPa Calm     54% 0.00in /  0mm
21:02 81.6 °F /  27.6 °C 65.4 °F /  18.6 °C 29.85in /  1010.7hPa Calm   1.0mph /  1.6km/h 58% 0.00in /  0mm
21:07 80.3 °F /  26.8 °C 65.2 °F /  18.4 °C 29.85in /  1010.7hPa NNW 2.0mph /  3.2km/h 2.0mph /  3.2km/h 60% 0.00in /  0mm
21:12 78.8 °F /  26 °C 63.3 °F /  17.4 °C 29.86in /  1011.1hPa Calm   1.0mph /  1.6km/h 59% 0.00in /  0mm
21:17 78.5 °F /  25.8 °C 63.5 °F /  17.5 °C 29.86in /  1011.1hPa Calm   1.0mph /  1.6km/h 60% 0.00in /  0mm
21:22 78.4 °F /  25.8 °C 63.4 °F /  17.4 °C 29.86in /  1011.1hPa Calm     60% 0.00in /  0mm
21:27 78.0 °F /  25.6 °C 62.5 °F /  16.9 °C 29.86in /  1011.1hPa Calm     59% 0.00in /  0mm
21:32 77.6 °F /  25.3 °C 61.2 °F /  16.2 °C 29.86in /  1011.1hPa NNW 1.0mph /  1.6km/h 1.0mph /  1.6km/h 57% 0.00in /  0mm
21:37 77.6 °F /  25.3 °C 61.2 °F /  16.2 °C 29.86in /  1011.1hPa NNW 1.0mph /  1.6km/h 1.0mph /  1.6km/h 57% 0.00in /  0mm
21:42 77.6 °F /  25.3 °C 60.2 °F /  15.7 °C 29.86in /  1011.1hPa Calm     55% 0.00in /  0mm
21:47 77.5 °F /  25.3 °C 59.0 °F /  15 °C 29.86in /  1011.1hPa Calm     53% 0.00in /  0mm
21:52 77.3 °F /  25.2 °C 59.4 °F /  15.2 °C 29.86in /  1011.1hPa Calm     54% 0.00in /  0mm
21:57 76.6 °F /  24.8 °C 59.2 °F /  15.1 °C 29.86in /  1011.1hPa Calm     55% 0.00in /  0mm
22:02 76.2 °F /  24.6 °C 60.4 °F /  15.8 °C 29.87in /  1011.4hPa Calm   1.0mph /  1.6km/h 58% 0.00in /  0mm
22:07 75.4 °F /  24.1 °C 60.6 °F /  15.9 °C 29.87in /  1011.4hPa NNW 1.0mph /  1.6km/h 1.0mph /  1.6km/h 60% 0.00in /  0mm
22:12 74.6 °F /  23.7 °C 61.6 °F /  16.4 °C 29.88in /  1011.7hPa Calm   1.0mph /  1.6km/h 64% 0.00in /  0mm
22:17 74.4 °F /  23.6 °C 60.1 °F /  15.6 °C 29.88in /  1011.7hPa Calm   1.0mph /  1.6km/h 61% 0.00in /  0mm
22:22 74.8 °F /  23.8 °C 60.9 °F /  16.1 °C 29.88in /  1011.7hPa Calm   1.0mph /  1.6km/h 62% 0.00in /  0mm
22:27 74.4 °F /  23.6 °C 60.1 °F /  15.6 °C 29.88in /  1011.7hPa Calm     61% 0.00in /  0mm
22:32 73.9 °F /  23.3 °C 59.6 °F /  15.3 °C 29.88in /  1011.7hPa Calm     61% 0.00in /  0mm
22:37 73.2 °F /  22.9 °C 59.0 °F /  15 °C 29.88in /  1011.7hPa Calm     61% 0.00in /  0mm
22:42 74.0 °F /  23.3 °C 58.8 °F /  14.9 °C 29.88in /  1011.7hPa NNW 1.0mph /  1.6km/h 1.0mph /  1.6km/h 59% 0.00in /  0mm
22:47 75.4 °F /  24.1 °C 59.1 °F /  15.1 °C 29.88in /  1011.7hPa Calm   1.0mph /  1.6km/h 57% 0.00in /  0mm
22:52 75.5 °F /  24.2 °C 58.7 °F /  14.8 °C 29.89in /  1012.1hPa Calm   1.0mph /  1.6km/h 56% 0.00in /  0mm
22:57 75.1 °F /  23.9 °C 58.8 °F /  14.9 °C 29.89in /  1012.1hPa Calm   1.0mph /  1.6km/h 57% 0.00in /  0mm
23:02 74.9 °F /  23.8 °C 58.7 °F /  14.8 °C 29.89in /  1012.1hPa Calm   1.0mph /  1.6km/h 57% 0.00in /  0mm
23:07 75.3 °F /  24.1 °C 58.5 °F /  14.7 °C 29.89in /  1012.1hPa NNE 1.0mph /  1.6km/h 1.0mph /  1.6km/h 56% 0.00in /  0mm
23:12 75.5 °F /  24.2 °C 58.7 °F /  14.8 °C 29.89in /  1012.1hPa NNE 1.0mph /  1.6km/h 1.0mph /  1.6km/h 56% 0.00in /  0mm
23:17 75.5 °F /  24.2 °C 58.2 °F /  14.6 °C 29.89in /  1012.1hPa NE 1.0mph /  1.6km/h 2.0mph /  3.2km/h 55% 0.00in /  0mm
23:22 75.8 °F /  24.3 °C 58.5 °F /  14.7 °C 29.89in /  1012.1hPa NNE 2.0mph /  3.2km/h 2.0mph /  3.2km/h 55% 0.00in /  0mm
23:27 76.4 °F /  24.7 °C 58.5 °F /  14.7 °C 29.89in /  1012.1hPa NNE 2.0mph /  3.2km/h 3.0mph /  4.8km/h 54% 0.00in /  0mm
23:32 76.8 °F /  24.9 °C 58.4 °F /  14.7 °C 29.89in /  1012.1hPa NE 2.0mph /  3.2km/h 3.0mph /  4.8km/h 53% 0.00in /  0mm
23:37 76.7 °F /  24.8 °C 58.3 °F /  14.6 °C 29.89in /  1012.1hPa NNE 2.0mph /  3.2km/h 4.0mph /  6.4km/h 53% 0.00in /  0mm
23:42 76.7 °F /  24.8 °C 58.3 °F /  14.6 °C 29.89in /  1012.1hPa NNE 2.0mph /  3.2km/h 3.0mph /  4.8km/h 53% 0.00in /  0mm
23:48 76.8 °F /  24.9 °C 58.4 °F /  14.7 °C 29.89in /  1012.1hPa NNE 2.0mph /  3.2km/h 4.0mph /  6.4km/h 53% 0.00in /  0mm
23:53 76.8 °F /  24.9 °C 57.9 °F /  14.4 °C 29.89in /  1012.1hPa NE 4.0mph /  6.4km/h 4.0mph /  6.4km/h 52% 0.00in /  0mm
23:58 76.8 °F /  24.9 °C 57.9 °F /  14.4 °C 29.89in /  1012.1hPa NE 3.0mph /  4.8km/h 3.0mph /  4.8km/h 52% 0.00in /  0mm
Compliments of Weather Underground